Time;durP1;ratioP1;P1;durP2;ratioP2;P2;SDS_P1;SDS_P2;PMS_P1;PMS_P2;Temp;Humidity;BMP_temperature;BMP_pressure;BME280_temperature;BME280_humidity;BME280_pressure;Samples;Min_cycle;Max_cycle;Signal;HPM_P1;HPM_P2
2022/06/10 00:02:06;;;;;;;8.35;4.13;;;;;;;18.78;100.00;93936.63;5006411;28;20244;-80
2022/06/10 00:04:38;;;;;;;5.18;3.90;;;;;;;18.72;100.00;93931.72;4994663;28;20659;-80
2022/06/10 00:07:11;;;;;;;5.60;3.95;;;;;;;18.78;100.00;93933.97;4993285;28;20208;-79
2022/06/10 00:09:42;;;;;;;12.05;4.63;;;;;;;18.78;100.00;93933.19;4997565;28;20349;-79
2022/06/10 00:12:12;;;;;;;4.53;4.03;;;;;;;18.78;100.00;93930.56;4999421;28;20223;-79
2022/06/10 00:14:45;;;;;;;5.22;4.15;;;;;;;18.80;100.00;93934.47;5001471;28;20307;-79
2022/06/10 00:17:17;;;;;;;5.25;4.53;;;;;;;18.80;100.00;93934.47;4998840;28;20199;-77
2022/06/10 00:19:50;;;;;;;6.47;4.10;;;;;;;18.75;100.00;93924.03;4996324;28;20207;-81
2022/06/10 00:22:25;;;;;;;6.95;4.18;;;;;;;18.73;100.00;93928.78;4992771;28;20758;-79
2022/06/10 00:24:58;;;;;;;4.10;3.70;;;;;;;18.72;100.00;93929.84;4997099;28;20204;-80
2022/06/10 00:27:30;;;;;;;5.10;4.05;;;;;;;18.71;100.00;93930.91;4995516;28;20990;-80
2022/06/10 00:30:02;;;;;;;5.88;4.05;;;;;;;18.72;100.00;93916.69;4995987;28;20236;-80
2022/06/10 00:32:33;;;;;;;5.63;3.78;;;;;;;18.78;100.00;93912.91;4991214;28;20270;-80
2022/06/10 00:35:09;;;;;;;4.90;4.03;;;;;;;18.85;100.00;93915.97;4993388;28;20208;-78
2022/06/10 00:37:45;;;;;;;6.07;4.32;;;;;;;18.84;100.00;93916.25;4994906;28;20269;-79
2022/06/10 00:40:18;;;;;;;7.20;4.28;;;;;;;18.75;100.00;93905.59;5001673;28;20211;-79
2022/06/10 00:42:58;;;;;;;10.27;4.60;;;;;;;18.74;100.00;93896.13;4997226;28;20290;-79
2022/06/10 00:45:56;;;;;;;12.07;5.13;;;;;;;18.82;100.00;93915.75;4995832;28;20203;-79
2022/06/10 00:48:44;;;;;;;13.30;5.53;;;;;;;18.80;100.00;93907.34;4992441;28;20208;-79
2022/06/10 00:51:38;;;;;;;6.50;5.15;;;;;;;18.77;100.00;93906.09;4991536;28;20270;-80
2022/06/10 00:54:22;;;;;;;8.35;5.40;;;;;;;18.70;100.00;93903.81;4999471;28;20693;-80
2022/06/10 00:56:57;;;;;;;8.63;5.18;;;;;;;18.74;100.00;93904.03;4997009;28;20294;-79
2022/06/10 00:59:36;;;;;;;11.82;5.80;;;;;;;18.72;100.00;93889.59;5001505;28;20202;-80
2022/06/10 01:02:10;;;;;;;8.93;5.95;;;;;;;18.79;100.00;93903.94;4995103;28;20228;-80
2022/06/10 01:04:43;;;;;;;7.05;5.85;;;;;;;18.88;100.00;93909.31;4996154;28;20195;-80
2022/06/10 01:07:18;;;;;;;7.53;5.75;;;;;;;18.85;100.00;93908.06;4992643;28;20210;-81
2022/06/10 01:09:56;;;;;;;8.60;5.20;;;;;;;18.87;100.00;93902.53;4995872;28;21318;-80
2022/06/10 01:12:52;;;;;;;8.50;5.75;;;;;;;18.88;100.00;93907.47;4993431;28;20224;-82
2022/06/10 01:15:38;;;;;;;8.32;5.78;;;;;;;18.82;100.00;93903.38;4990595;28;20267;-79
2022/06/10 01:18:36;;;;;;;9.77;6.55;;;;;;;18.84;100.00;93911.78;4991360;28;20290;-80
2022/06/10 01:21:38;;;;;;;7.50;5.80;;;;;;;18.79;100.00;93893.41;4990637;28;20196;-80
2022/06/10 01:24:35;;;;;;;8.88;6.38;;;;;;;18.77;100.00;93907.94;4991867;28;20238;-80
2022/06/10 01:27:54;;;;;;;7.18;6.30;;;;;;;18.65;100.00;93905.72;4989670;28;20207;-80
2022/06/10 01:30:49;;;;;;;8.10;6.72;;;;;;;18.62;100.00;93901.03;4894613;29;20222;-80
2022/06/10 01:33:36;;;;;;;9.30;6.55;;;;;;;18.67;100.00;93895.72;4900437;29;20334;-81
2022/06/10 01:36:13;;;;;;;9.30;6.45;;;;;;;18.77;100.00;93907.94;4983320;28;20203;-80
2022/06/10 01:38:53;;;;;;;10.18;7.50;;;;;;;18.65;100.00;93913.63;4989874;28;20211;-80
2022/06/10 01:41:33;;;;;;;7.93;6.88;;;;;;;18.67;100.00;93917.53;4994490;28;20219;-80
2022/06/10 01:44:16;;;;;;;12.82;7.63;;;;;;;18.72;100.00;93915.91;4987172;28;20208;-80
2022/06/10 01:46:54;;;;;;;14.02;7.82;;;;;;;18.70;100.00;93913.53;5001136;28;20211;-80
2022/06/10 01:49:37;;;;;;;12.52;8.82;;;;;;;18.67;100.00;93908.88;4991486;28;20239;-80
2022/06/10 01:52:19;;;;;;;12.65;8.35;;;;;;;18.75;100.00;93917.97;4983097;28;20315;-80
2022/06/10 01:55:08;;;;;;;13.23;8.40;;;;;;;18.75;100.00;93916.13;4991405;28;20294;-80
2022/06/10 01:57:52;;;;;;;11.18;8.45;;;;;;;18.78;100.00;93915.56;4987285;28;20208;-80
2022/06/10 02:00:28;;;;;;;11.30;8.27;;;;;;;18.72;100.00;93915.91;4992509;28;20208;-80
2022/06/10 02:03:08;;;;;;;9.90;8.43;;;;;;;18.74;100.00;93919.03;5001355;28;20301;-81
2022/06/10 02:05:50;;;;;;;11.68;7.97;;;;;;;18.73;100.00;93920.88;4997878;28;20214;-80
2022/06/10 02:08:28;;;;;;;9.60;7.63;;;;;;;18.73;100.00;93923.50;4991047;28;20287;-81
2022/06/10 02:11:05;;;;;;;9.30;7.80;;;;;;;18.75;100.00;93924.03;4993542;28;20612;-81
2022/06/10 02:13:43;;;;;;;10.80;7.85;;;;;;;18.75;100.00;93921.41;4989884;28;20204;-82
2022/06/10 02:16:21;;;;;;;14.38;7.70;;;;;;;18.77;100.00;93923.72;4992474;28;20266;-81
2022/06/10 02:18:58;;;;;;;9.88;7.35;;;;;;;18.77;100.00;93927.16;4994010;28;20595;-81
2022/06/10 02:21:39;;;;;;;10.35;6.88;;;;;;;18.69;100.00;93920.69;4993281;28;20296;-82
2022/06/10 02:24:18;;;;;;;9.68;7.18;;;;;;;18.71;100.00;93925.66;4990764;28;20203;-81
2022/06/10 02:26:55;;;;;;;11.85;7.22;;;;;;;18.73;100.00;93923.50;4990947;28;20208;-81
2022/06/10 02:29:37;;;;;;;8.77;7.10;;;;;;;18.70;100.00;93929.34;4996752;28;20283;-81
2022/06/10 02:32:10;;;;;;;9.55;7.57;;;;;;;18.65;100.00;93927.56;4996165;28;20208;-81
2022/06/10 02:34:45;;;;;;;10.30;7.65;;;;;;;18.63;100.00;93924.47;4996850;28;20238;-81
2022/06/10 02:37:25;;;;;;;8.57;7.35;;;;;;;18.66;100.00;93931.00;4993441;28;20203;-82
2022/06/10 02:40:05;;;;;;;9.85;7.47;;;;;;;18.64;100.00;93919.97;4989502;28;20675;-80
2022/06/10 02:42:45;;;;;;;13.98;7.70;;;;;;;18.54;100.00;93914.84;4986533;28;20254;-80
2022/06/10 02:45:24;;;;;;;11.32;7.57;;;;;;;18.60;100.00;93934.75;4989810;28;21025;-80
2022/06/10 02:48:03;;;;;;;10.57;7.47;;;;;;;18.61;100.00;93938.97;4988604;28;21199;-79
2022/06/10 02:50:38;;;;;;;10.70;7.78;;;;;;;18.60;100.00;93937.41;4984722;28;20203;-80
2022/06/10 02:53:14;;;;;;;10.38;8.55;;;;;;;18.58;100.00;93934.28;4995138;28;20237;-79
2022/06/10 02:55:48;;;;;;;10.50;8.82;;;;;;;18.58;100.00;93940.31;4992293;28;20207;-80
2022/06/10 03:01:20;;;;;;;12.23;9.30;;;;;;;18.59;100.00;93941.09;4990449;28;20206;-81
2022/06/10 03:04:11;;;;;;;12.93;8.95;;;;;;;18.54;100.00;93941.94;5010874;28;20473;-81
2022/06/10 03:06:55;;;;;;;12.10;9.35;;;;;;;18.44;100.00;93934.16;5006533;28;20207;-81
2022/06/10 03:09:45;;;;;;;13.35;9.15;;;;;;;18.50;100.00;93934.91;5011233;28;20207;-81
2022/06/10 03:12:26;;;;;;;10.38;8.30;;;;;;;18.52;100.00;93935.41;5016517;28;20739;-80
2022/06/10 03:15:10;;;;;;;13.88;8.90;;;;;;;18.53;100.00;93948.28;5017208;28;20205;-80
2022/06/10 03:17:54;;;;;;;14.90;8.25;;;;;;;18.49;100.00;93946.50;5008208;28;20298;-80
2022/06/10 03:20:33;;;;;;;17.02;8.88;;;;;;;18.48;100.00;93942.28;5006272;28;20202;-79
2022/06/10 03:23:16;;;;;;;12.35;8.45;;;;;;;18.37;100.00;93931.09;5002355;28;20763;-79
2022/06/10 03:25:56;;;;;;;14.38;9.40;;;;;;;18.44;100.00;93944.69;5006632;28;20788;-79
2022/06/10 03:28:30;;;;;;;15.23;10.55;;;;;;;18.52;100.00;93945.94;5014463;28;20207;-80
2022/06/10 03:31:08;;;;;;;17.73;9.80;;;;;;;18.51;100.00;93941.72;5009558;28;20589;-79
2022/06/10 03:33:44;;;;;;;13.05;9.40;;;;;;;18.47;100.00;93949.38;5009119;28;20628;-79
2022/06/10 03:36:21;;;;;;;17.90;9.60;;;;;;;18.47;100.00;93945.97;5011606;28;20199;-80
2022/06/10 03:38:56;;;;;;;10.13;8.48;;;;;;;18.44;100.00;93949.19;5009681;28;20214;-81
2022/06/10 03:41:37;;;;;;;14.40;8.80;;;;;;;18.44;100.00;93952.56;5011213;28;20260;-80
2022/06/10 03:44:17;;;;;;;14.93;8.57;;;;;;;18.44;100.00;93949.19;5017621;28;20746;-80
2022/06/10 03:46:55;;;;;;;11.00;8.05;;;;;;;18.50;100.00;93948.06;5015755;28;20658;-82
2022/06/10 03:49:32;;;;;;;9.90;7.90;;;;;;;18.49;100.00;93946.50;5018116;28;20203;-81
2022/06/10 03:52:04;;;;;;;12.15;7.90;;;;;;;18.42;100.00;93954.72;5009446;28;20703;-81
2022/06/10 03:54:40;;;;;;;14.48;8.10;;;;;;;18.37;100.00;93952.16;5005683;28;20207;-80
2022/06/10 03:57:13;;;;;;;10.85;8.02;;;;;;;18.43;100.00;93961.56;5010652;28;20210;-82
2022/06/10 03:59:48;;;;;;;12.90;8.20;;;;;;;18.38;100.00;93958.22;5021299;28;20207;-79
2022/06/10 04:02:20;;;;;;;12.48;7.90;;;;;;;18.45;100.00;93964.66;5014310;28;20242;-84
2022/06/10 04:04:51;;;;;;;12.65;8.10;;;;;;;18.43;100.00;93960.75;5014074;28;20212;-83
2022/06/10 04:07:23;;;;;;;8.80;7.72;;;;;;;18.42;100.00;93962.59;5016170;28;20212;-85
2022/06/10 04:09:56;;;;;;;11.63;7.80;;;;;;;18.39;100.00;93950.00;5017618;28;20226;-85
2022/06/10 04:12:29;;;;;;;11.90;8.10;;;;;;;18.47;100.00;93959.16;5019933;28;20215;-83
2022/06/10 04:15:01;;;;;;;12.23;8.55;;;;;;;18.51;100.00;93962.78;5013875;28;20218;-84
2022/06/10 04:17:35;;;;;;;10.98;8.05;;;;;;;18.48;100.00;93960.69;5021522;28;20199;-85
2022/06/10 04:20:07;;;;;;;11.00;8.23;;;;;;;18.47;100.00;93954.63;5014820;28;20194;-85
2022/06/10 04:22:39;;;;;;;12.00;8.38;;;;;;;18.53;100.00;93965.91;5024466;28;20290;-85
2022/06/10 04:25:10;;;;;;;10.90;8.63;;;;;;;18.52;100.00;93961.72;5014981;28;20215;-84
2022/06/10 04:27:43;;;;;;;13.68;8.82;;;;;;;18.43;100.00;93940.50;5016887;28;20214;-83
2022/06/10 04:30:22;;;;;;;14.30;8.85;;;;;;;18.52;100.00;93954.63;5018559;28;20226;-84
2022/06/10 04:32:55;;;;;;;21.17;10.25;;;;;;;18.57;100.00;93959.81;5010208;28;20226;-84
2022/06/10 04:35:31;;;;;;;14.40;9.70;;;;;;;18.59;100.00;93962.94;5014236;28;20589;-87
2022/06/10 04:38:02;;;;;;;12.25;9.60;;;;;;;18.55;100.00;93961.16;5020821;28;20252;-86
2022/06/10 04:40:33;;;;;;;13.85;9.90;;;;;;;18.52;100.00;93965.16;5016075;28;20213;-87
2022/06/10 04:43:07;;;;;;;14.70;9.63;;;;;;;18.59;100.00;93968.19;5005049;28;20197;-86
2022/06/10 04:45:40;;;;;;;13.88;9.57;;;;;;;18.58;100.00;93966.66;5014053;28;20227;-87
2022/06/10 04:48:12;;;;;;;12.93;9.63;;;;;;;18.65;100.00;93974.97;5011353;28;20200;-86
2022/06/10 04:50:45;;;;;;;12.65;9.93;;;;;;;18.68;100.00;93974.41;5009479;28;20673;-85
2022/06/10 04:53:14;;;;;;;13.65;9.85;;;;;;;18.70;100.00;93977.50;5020368;28;20298;-85
2022/06/10 04:55:45;;;;;;;13.00;10.10;;;;;;;18.73;100.00;93976.16;5000611;28;20233;-86
2022/06/10 04:58:21;;;;;;;11.77;9.50;;;;;;;18.75;100.00;93978.53;5017039;28;20261;-84
2022/06/10 05:00:51;;;;;;;19.42;10.20;;;;;;;18.71;100.00;93973.03;5019192;28;20567;-83
2022/06/10 05:03:19;;;;;;;15.35;9.93;;;;;;;18.70;100.00;93984.63;5016873;28;20221;-83
2022/06/10 05:05:50;;;;;;;14.63;10.38;;;;;;;18.70;100.00;93982.78;5020675;28;20215;-83
2022/06/10 05:08:24;;;;;;;19.38;9.88;;;;;;;18.72;100.00;93985.16;5011443;28;20207;-83
2022/06/10 05:10:55;;;;;;;13.25;10.05;;;;;;;18.74;100.00;93984.84;5012603;28;20214;-83
2022/06/10 05:13:29;;;;;;;16.48;11.13;;;;;;;18.79;100.00;93992.69;5010651;28;20223;-82
2022/06/10 05:16:00;;;;;;;16.58;11.10;;;;;;;18.81;100.00;93996.59;5014232;28;20214;-83
2022/06/10 05:18:35;;;;;;;13.90;9.90;;;;;;;18.84;100.00;94003.16;5012191;28;20207;-86
2022/06/10 05:21:08;;;;;;;15.15;9.70;;;;;;;18.88;100.00;94001.50;5023058;28;20203;-85
2022/06/10 05:23:44;;;;;;;12.60;10.10;;;;;;;18.68;100.00;93999.94;5017987;28;20662;-84
2022/06/10 05:26:14;;;;;;;11.10;8.80;;;;;;;18.75;100.00;94005.63;5010774;28;20795;-84
2022/06/10 05:28:46;;;;;;;14.48;9.10;;;;;;;18.85;100.00;94005.47;5016171;28;20203;-83
2022/06/10 05:31:14;;;;;;;14.70;9.07;;;;;;;18.86;100.00;93995.75;5014451;28;20227;-83
2022/06/10 05:36:34;;;;;;;13.38;9.75;;;;;;;19.00;100.00;94002.66;5014094;28;20285;-85
2022/06/10 05:39:07;;;;;;;17.00;9.93;;;;;;;19.03;100.00;94002.06;5011184;28;20203;-83
2022/06/10 05:44:26;;;;;;;15.43;10.55;;;;;;;19.10;100.00;94001.72;5015182;28;20213;-85
2022/06/10 05:47:00;;;;;;;14.13;9.93;;;;;;;19.16;100.00;94008.47;5016714;28;20211;-84
2022/06/10 05:49:31;;;;;;;15.70;11.13;;;;;;;19.24;100.00;94005.19;5007865;28;20202;-82
2022/06/10 05:52:04;;;;;;;12.57;10.38;;;;;;;19.16;100.00;94001.34;5010452;28;20238;-83
2022/06/10 05:54:35;;;;;;;14.75;11.07;;;;;;;19.26;100.00;94003.03;5010652;28;20208;-84
2022/06/10 05:57:05;;;;;;;15.32;9.93;;;;;;;19.34;100.00;94007.66;5008657;28;20681;-83
2022/06/10 05:59:42;;;;;;;12.38;10.15;;;;;;;19.35;100.00;93990.00;5014109;28;20210;-84
2022/06/10 06:02:14;;;;;;;13.85;9.82;;;;;;;19.55;100.00;94014.19;5001944;28;20235;-90
2022/06/10 06:04:46;;;;;;;16.02;10.43;;;;;;;19.56;100.00;94015.78;5001035;28;20212;-91
2022/06/10 06:07:27;;;;;;;11.98;10.05;;;;;;;19.48;100.00;94007.75;5002011;28;20215;-85
2022/06/10 06:10:03;;;;;;;18.20;10.80;;;;;;;19.42;100.00;94016.81;4998950;28;20204;-83
2022/06/10 06:12:34;;;;;;;11.73;10.10;;;;;;;19.45;100.00;94013.59;4997147;28;20223;-82
2022/06/10 06:15:07;;;;;;;12.15;10.10;;;;;;;19.44;100.00;94014.66;4997800;28;20215;-82
2022/06/10 06:17:37;;;;;;;12.57;10.35;;;;;;;19.36;100.00;94015.28;4995209;28;20737;-84
2022/06/10 06:20:07;;;;;;;10.60;9.50;;;;;;;19.20;100.00;94018.16;4990888;28;20953;-83
2022/06/10 06:22:40;;;;;;;13.85;10.30;;;;;;;19.10;100.00;94022.78;4993963;28;20196;-84
2022/06/10 06:25:15;;;;;;;17.50;10.63;;;;;;;19.04;100.00;94008.91;5000564;28;20238;-85
2022/06/10 06:27:48;;;;;;;12.90;10.32;;;;;;;19.30;100.00;94035.66;4992276;28;20212;-85
2022/06/10 06:30:32;;;;;;;12.57;10.30;;;;;;;19.39;100.00;94038.47;4991794;28;20192;-85
2022/06/10 06:33:10;;;;;;;12.25;10.38;;;;;;;19.42;100.00;94019.44;4987089;28;20237;-84
2022/06/10 06:35:49;;;;;;;14.07;10.63;;;;;;;19.40;100.00;94024.97;4989662;28;20203;-84
2022/06/10 06:38:25;;;;;;;13.77;10.10;;;;;;;19.28;100.00;94035.94;4993318;28;20294;-85
2022/06/10 06:40:57;;;;;;;12.93;9.88;;;;;;;19.24;100.00;94031.53;4993862;28;20219;-84
2022/06/10 06:43:30;;;;;;;11.90;9.18;;;;;;;19.15;100.00;94027.97;4995308;28;20203;-85
2022/06/10 06:46:05;;;;;;;12.75;9.73;;;;;;;19.25;100.00;94028.59;4982792;28;20230;-85
2022/06/10 06:48:37;;;;;;;11.05;9.52;;;;;;;19.36;100.00;94034.53;4990782;28;20306;-85
2022/06/10 06:51:10;;;;;;;10.43;9.32;;;;;;;19.48;100.00;94039.38;4986711;28;20239;-84
2022/06/10 06:53:42;;;;;;;14.52;9.50;;;;;;;19.57;100.00;94032.34;4990739;28;20235;-82
2022/06/10 06:56:12;;;;;;;13.13;8.65;;;;;;;19.66;100.00;94025.34;4985575;28;20210;-83
2022/06/10 06:58:45;;;;;;;13.77;9.25;;;;;;;19.83;100.00;94028.22;4990494;28;20215;-83
2022/06/10 07:01:18;;;;;;;11.25;9.02;;;;;;;19.93;100.00;94035.19;4996775;28;20248;-83
2022/06/10 07:03:52;;;;;;;10.82;8.55;;;;;;;19.99;100.00;94032.16;4996051;28;20333;-83
2022/06/10 07:06:24;;;;;;;13.02;8.40;;;;;;;20.03;100.00;94030.50;4997649;28;20245;-87
2022/06/10 07:08:57;;;;;;;12.18;8.32;;;;;;;20.08;100.00;94025.16;4998046;28;20277;-86
2022/06/10 07:11:26;;;;;;;9.85;8.57;;;;;;;19.93;100.00;94028.06;4990657;28;20290;-87
2022/06/10 07:14:02;;;;;;;10.93;8.50;;;;;;;19.98;100.00;94035.09;4992520;28;20246;-85
2022/06/10 07:16:36;;;;;;;10.85;9.23;;;;;;;20.01;100.00;94027.38;4986501;28;20230;-86
2022/06/10 07:19:08;;;;;;;12.68;9.27;;;;;;;20.14;100.00;94034.53;4995375;28;20207;-88
2022/06/10 07:21:41;;;;;;;10.55;8.50;;;;;;;20.25;100.00;94035.94;4996553;28;20200;-83
2022/06/10 07:24:13;;;;;;;9.52;8.52;;;;;;;20.34;100.00;94041.31;4989774;28;20199;-83
2022/06/10 07:26:46;;;;;;;11.85;8.45;;;;;;;20.39;100.00;94030.66;4987470;28;20252;-84
2022/06/10 07:29:16;;;;;;;9.65;8.45;;;;;;;20.44;100.00;94032.41;4988846;28;20640;-82
2022/06/10 07:31:49;;;;;;;12.40;8.55;;;;;;;20.41;100.00;94046.19;4998931;28;20239;-81
2022/06/10 07:34:22;;;;;;;14.18;9.43;;;;;;;20.34;100.00;94047.38;4992422;28;20372;-76
2022/06/10 07:36:53;;;;;;;12.73;8.35;;;;;;;20.37;100.00;94059.97;4989721;28;20327;-84
2022/06/10 07:39:22;;;;;;;13.85;8.85;;;;;;;20.38;100.00;94053.63;4988634;28;20227;-84
2022/06/10 07:41:58;;;;;;;10.65;8.40;;;;;;;20.30;100.00;94049.03;4995170;28;20234;-83
2022/06/10 07:44:29;;;;;;;11.63;8.82;;;;;;;20.38;100.00;94048.34;4992327;28;20254;-81
2022/06/10 07:47:07;;;;;;;17.65;9.18;;;;;;;20.44;100.00;94035.03;4985483;28;20208;-80
2022/06/10 07:49:38;;;;;;;14.38;9.30;;;;;;;20.61;100.00;94051.06;4992707;28;20199;-85
2022/06/10 07:52:10;;;;;;;13.18;9.00;;;;;;;20.67;100.00;94050.69;4988749;28;20200;-80
2022/06/10 07:54:42;;;;;;;12.18;9.35;;;;;;;20.78;100.00;94046.75;4994894;28;20216;-81
2022/06/10 07:57:13;;;;;;;14.30;9.35;;;;;;;20.84;100.00;94050.84;4995562;28;20302;-82
2022/06/10 07:59:46;;;;;;;12.68;9.10;;;;;;;20.93;100.00;94058.84;4991110;28;20568;-82
2022/06/10 08:02:23;;;;;;;12.38;8.75;;;;;;;21.04;100.00;94054.16;4998458;28;20827;-82
2022/06/10 08:04:59;;;;;;;17.92;8.75;;;;;;;21.08;100.00;94052.50;5008979;28;20580;-82
2022/06/10 08:07:29;;;;;;;10.25;7.75;;;;;;;21.23;100.00;94049.53;5015660;28;20246;-81
2022/06/10 08:09:57;;;;;;;12.77;8.57;;;;;;;21.25;100.00;94047.38;5002494;28;20210;-85
2022/06/10 08:12:28;;;;;;;14.85;8.68;;;;;;;21.24;100.00;94051.09;5008846;28;20570;-84
2022/06/10 08:14:59;;;;;;;16.10;10.20;;;;;;;21.26;100.00;94062.94;5009052;28;20218;-83
2022/06/10 08:17:34;;;;;;;18.77;10.50;;;;;;;21.37;100.00;94064.28;5006163;28;20203;-87
2022/06/10 08:20:02;;;;;;;14.02;10.50;;;;;;;21.31;100.00;94057.53;4994224;28;20495;-82
2022/06/10 08:22:32;;;;;;;14.18;10.52;;;;;;;21.15;100.00;94061.59;5008404;28;20231;-83
2022/06/10 08:25:04;;;;;;;21.02;9.98;;;;;;;21.24;100.00;94056.38;5003062;28;20200;-83
2022/06/10 08:27:33;;;;;;;13.73;10.20;;;;;;;21.20;100.00;94052.78;4993134;28;20290;-83
2022/06/10 08:30:04;;;;;;;17.20;9.48;;;;;;;21.15;100.00;94066.88;5011409;28;20214;-83
2022/06/10 08:32:35;;;;;;;15.60;9.05;;;;;;;21.17;100.00;94056.78;5015800;28;20693;-82
2022/06/10 08:35:04;;;;;;;16.17;9.68;;;;;;;21.14;100.00;94073.25;5008205;28;20227;-82
2022/06/10 08:37:34;;;;;;;13.35;9.38;;;;;;;21.02;100.00;94072.16;5007061;28;20632;-87
2022/06/10 08:40:01;;;;;;;13.13;9.50;;;;;;;20.95;100.00;94072.59;5007070;28;20216;-86
2022/06/10 08:42:39;;;;;;;12.65;8.60;;;;;;;21.11;100.00;94080.97;5015953;28;20208;-85
2022/06/10 08:45:21;;;;;;;14.43;8.35;;;;;;;21.23;100.00;94076.75;5019540;28;20191;-86
2022/06/10 08:48:04;;;;;;;9.82;7.88;;;;;;;21.22;100.00;94084.97;5008119;28;20215;-79
2022/06/10 08:50:55;;;;;;;11.65;7.43;;;;;;;21.19;100.00;94086.34;5013454;28;20203;-79
2022/06/10 08:53:41;;;;;;;10.15;7.03;;;;;;;21.28;100.00;94087.22;5010151;28;20721;-85
2022/06/10 08:56:21;;;;;;;8.23;6.95;;;;;;;21.14;100.00;94077.75;4989208;28;20235;-81
2022/06/10 08:59:00;;;;;;;12.20;7.55;;;;;;;21.30;100.00;94079.75;5006243;28;20207;-87
2022/06/10 09:01:33;;;;;;;10.57;7.03;;;;;;;21.52;100.00;94086.16;5013088;28;20231;-86
2022/06/10 09:04:14;;;;;;;10.88;7.85;;;;;;;21.54;100.00;94089.28;5022246;28;20203;-89
2022/06/10 09:06:53;;;;;;;11.90;7.60;;;;;;;21.53;100.00;94090.38;5012088;28;20206;-84
2022/06/10 09:09:30;;;;;;;12.05;6.78;;;;;;;21.66;100.00;94090.31;5013243;28;20208;-82
2022/06/10 09:12:11;;;;;;;7.30;6.40;;;;;;;21.81;100.00;94099.75;5017053;28;20213;-84
2022/06/10 09:14:44;;;;;;;12.55;7.10;;;;;;;21.72;100.00;94096.25;5016978;28;20718;-84
2022/06/10 09:17:22;;;;;;;10.50;7.18;;;;;;;21.81;100.00;94089.97;5019332;28;20229;-86
2022/06/10 09:20:02;;;;;;;9.20;7.03;;;;;;;21.88;100.00;94095.63;5018584;28;20203;-85
2022/06/10 09:22:39;;;;;;;11.65;7.72;;;;;;;21.81;100.00;94094.47;5023707;28;20235;-86
2022/06/10 09:25:15;;;;;;;15.05;7.75;;;;;;;21.66;100.00;94092.97;5012490;28;20199;-85
2022/06/10 09:27:47;;;;;;;8.95;7.85;;;;;;;21.81;100.00;94089.97;5019908;28;20199;-86
2022/06/10 09:30:23;;;;;;;12.18;7.50;;;;;;;21.76;100.00;94087.41;5024103;28;20246;-85
2022/06/10 09:33:02;;;;;;;10.75;7.47;;;;;;;21.86;100.00;94086.41;5018369;28;20220;-85
2022/06/10 09:35:42;;;;;;;8.13;7.20;;;;;;;22.04;100.00;94096.84;5014184;28;20195;-85
2022/06/10 09:38:23;;;;;;;10.40;7.28;;;;;;;22.09;100.00;94095.13;5012502;28;20214;-85
2022/06/10 09:41:08;;;;;;;8.00;6.53;;;;;;;21.96;100.00;94094.13;5008639;28;20627;-85
2022/06/10 09:44:02;;;;;;;7.80;6.53;;;;;;;21.74;100.00;94091.44;4995086;28;20191;-86
2022/06/10 09:46:51;;;;;;;9.48;6.68;;;;;;;21.60;100.00;94098.66;5005116;28;20200;-85
2022/06/10 09:50:04;;;;;;;7.57;6.13;;;;;;;21.33;100.00;94099.53;5018063;28;20207;-86
2022/06/10 09:52:40;;;;;;;9.27;6.63;;;;;;;21.10;100.00;94097.91;4998225;28;20202;-87
2022/06/10 09:55:28;;;;;;;9.80;6.88;;;;;;;21.21;100.00;94094.00;5015633;28;20249;-87
2022/06/10 09:58:13;;;;;;;10.55;6.90;;;;;;;21.20;100.00;94100.34;5011380;28;20206;-89
2022/06/10 10:00:54;;;;;;;12.00;7.53;;;;;;;20.97;100.00;94083.63;5013841;28;20199;-90
2022/06/10 10:03:40;;;;;;;11.63;7.55;;;;;;;21.01;100.00;94104.97;5013869;28;20286;-85
2022/06/10 10:06:26;;;;;;;9.95;7.38;;;;;;;21.09;100.00;94130.72;5019186;28;20253;-86
2022/06/10 10:09:03;;;;;;;13.65;8.05;;;;;;;20.98;100.00;94139.91;5027313;28;20227;-86
2022/06/10 10:11:42;;;;;;;8.40;7.45;;;;;;;20.90;100.00;94136.88;5025423;28;20248;-85
2022/06/10 10:14:23;;;;;;;11.20;8.20;;;;;;;20.64;100.00;94125.22;5028468;28;20833;-88
2022/06/10 10:17:05;;;;;;;12.45;7.53;;;;;;;20.50;100.00;94134.19;5024124;28;20241;-84
2022/06/10 10:19:54;;;;;;;10.40;8.15;;;;;;;20.18;100.00;94133.16;5025185;28;20711;-81
2022/06/10 10:22:51;;;;;;;11.57;8.93;;;;;;;20.01;100.00;94132.91;5028664;28;20209;-79
2022/06/10 10:25:26;;;;;;;14.90;10.10;;;;;;;19.68;100.00;94141.88;5027304;28;20198;-77
2022/06/10 10:27:56;;;;;;;15.35;10.98;;;;;;;19.42;100.00;94135.41;5026527;28;20202;-77
2022/06/10 10:30:33;;;;;;;14.50;11.25;;;;;;;19.32;100.00;94125.75;5025424;28;20199;-77
2022/06/10 10:33:07;;;;;;;16.90;11.35;;;;;;;19.22;100.00;94129.31;5030236;28;20256;-80
2022/06/10 10:35:40;;;;;;;16.30;10.48;;;;;;;19.15;100.00;94128.88;5029817;28;20233;-79
2022/06/10 10:38:14;;;;;;;12.85;9.95;;;;;;;19.04;100.00;94135.34;5029935;28;20199;-78
2022/06/10 10:40:46;;;;;;;15.38;9.38;;;;;;;19.06;100.00;94127.94;5030584;28;20207;-76
2022/06/10 10:43:20;;;;;;;13.82;10.00;;;;;;;19.09;100.00;94131.88;5027390;28;20310;-76
2022/06/10 10:46:02;;;;;;;12.65;9.32;;;;;;;19.19;100.00;94131.75;5013295;28;20301;-83
2022/06/10 10:48:35;;;;;;;13.20;9.70;;;;;;;19.21;100.00;94138.28;5020764;28;20248;-82
2022/06/10 10:51:18;;;;;;;15.02;10.38;;;;;;;19.16;100.00;94137.56;5017874;28;20199;-84
2022/06/10 10:53:54;;;;;;;12.27;8.88;;;;;;;19.25;100.00;94130.59;5030405;28;20222;-82
2022/06/10 10:56:32;;;;;;;15.27;10.23;;;;;;;19.38;100.00;94119.34;5018861;28;20258;-83
2022/06/10 10:59:03;;;;;;;15.50;10.27;;;;;;;19.48;100.00;94118.47;5012122;28;20587;-83
2022/06/10 11:01:47;;;;;;;17.63;10.07;;;;;;;19.56;100.00;94118.59;5024772;28;20243;-82
2022/06/10 11:04:20;;;;;;;16.58;9.23;;;;;;;19.66;100.00;94115.00;5026265;28;20665;-84
2022/06/10 11:07:01;;;;;;;14.15;9.10;;;;;;;19.75;100.00;94113.28;5029031;28;20268;-80
2022/06/10 11:09:31;;;;;;;14.05;10.43;;;;;;;19.89;100.00;94116.75;5029577;28;20606;-76
2022/06/10 11:12:07;;;;;;;14.57;10.40;;;;;;;19.98;100.00;94125.56;5029634;28;20238;-76
2022/06/10 11:14:38;;;;;;;16.70;9.75;;;;;;;20.11;100.00;94124.84;5019441;28;20302;-77
2022/06/10 11:17:18;;;;;;;14.18;9.50;;;;;;;20.25;100.00;94120.41;5023401;28;20674;-81
2022/06/10 11:19:50;;;;;;;11.55;9.45;;;;;;;20.37;100.00;94119.94;5028932;28;20202;-81
2022/06/10 11:22:30;;;;;;;12.88;9.57;;;;;;;20.45;100.00;94124.53;5014736;28;20216;-82
2022/06/10 11:25:27;;;;;;;22.73;9.50;;;;;;;20.55;100.00;94116.41;5015358;28;20234;-82
2022/06/10 11:28:08;;;;;;;12.00;8.02;;;;;;;20.58;100.00;94110.53;5019276;28;20207;-83
2022/06/10 11:30:48;;;;;;;9.82;8.32;;;;;;;20.72;100.00;94118.50;5030508;28;20519;-81
2022/06/10 11:33:29;;;;;;;10.30;8.50;;;;;;;20.83;100.00;94107.44;5030834;28;20691;-77
2022/06/10 11:36:10;;;;;;;11.80;8.32;;;;;;;20.91;100.00;94109.38;5026339;28;20223;-82
2022/06/10 11:38:49;;;;;;;12.57;8.90;;;;;;;21.11;100.00;94102.91;5022391;28;20241;-82
2022/06/10 11:41:31;;;;;;;13.02;8.50;;;;;;;21.33;100.00;94118.03;5030941;28;20206;-81
2022/06/10 11:44:18;;;;;;;12.00;8.30;;;;;;;21.60;100.00;94111.88;5008455;28;20233;-84
2022/06/10 11:46:54;;;;;;;10.20;8.32;;;;;;;21.80;100.00;94106.91;5027542;28;20250;-83
2022/06/10 11:49:30;;;;;;;11.80;8.43;;;;;;;22.13;100.00;94109.31;5034646;28;20198;-82
2022/06/10 11:52:05;;;;;;;11.02;8.80;;;;;;;22.41;100.00;94110.72;5007062;28;20674;-86
2022/06/10 11:54:41;;;;;;;9.90;8.02;;;;;;;22.50;100.00;94101.72;5020546;28;20696;-78
2022/06/10 12:00:14;;;;;;;11.25;8.95;;;;;;;22.72;100.00;94114.16;4995425;28;20576;-85
2022/06/10 12:02:45;;;;;;;9.65;8.60;;;;;;;22.91;100.00;94114.69;5030766;28;20238;-83
2022/06/10 12:05:24;;;;;;;9.85;8.18;;;;;;;23.31;100.00;94110.09;5032485;28;20364;-84
2022/06/10 12:08:04;;;;;;;8.23;7.30;;;;;;;23.70;100.00;94099.34;5033933;28;20264;-83
2022/06/10 12:10:49;;;;;;;9.85;7.93;;;;;;;23.97;100.00;94113.41;5031478;28;20203;-83
2022/06/10 12:13:18;;;;;;;11.23;7.50;;;;;;;24.35;100.00;94111.63;5031645;28;20198;-83